Hlavní strana
METAR-TAF:

METAR-TAF

Letiště :

Paganella, Itálie

zeměpisná šířka: 46-09N, zeměpisná délka: 011-02E, výška: 2125 m

Aktuální stav počasí

Zpráva byla vytvořena před 1 hodinou a 6 minutami, v 09:55 UTC
Severní vítr 5 kt
Teplota 14°C
Vlhkost vzduchu 63%
Tlak 1028 hPa
Viditelnost 10 km a více
Skoro jasno ve výšce 1500 ft

METAR: LIVP 200955Z 36005KT 9999 FEW015 14/07 Q1028 RMK SCT MON LIB VAL NIL VIS MIN 9999

Čas: 13:01 (11:01 UTC)


TAF: chybějící

Stav a předpovědi počasí z více než 4 000 letišť (zprávy METAR a TAF).

Červené a žluté tečky na mapě představují dostupné meteorologické stanice.

Když kurzor umístíte na tečku, zobrazí se název stanice.

Pak kliknutím zobrazíte stav a předpověď počasí.

Chcete-li změnit mapu, kliknutím na zelené tlačítko se znaménkem +mapu přiblížíte, kliknutím na zelené tlačítko se znaménkem – mapu oddálíte a kliknutím na zelené šipky přejdete na sousední mapy.


METAR-TAF: